sensor_id;sensor_type;location;lat;lon;timestamp;P1;durP1;ratioP1;P2;durP2;ratioP2
45420;SDS011;55462;47.042;8.292;2023-06-19T00:00:46;7.10;;;6.47;;
45420;SDS011;55462;47.042;8.292;2023-06-19T00:03:11;6.78;;;6.22;;
45420;SDS011;55462;47.042;8.292;2023-06-19T00:05:37;6.97;;;6.47;;
45420;SDS011;55462;47.042;8.292;2023-06-19T00:08:02;6.75;;;6.25;;
45420;SDS011;55462;47.042;8.292;2023-06-19T00:10:29;7.22;;;6.63;;
45420;SDS011;55462;47.042;8.292;2023-06-19T00:12:54;6.70;;;6.20;;
45420;SDS011;55462;47.042;8.292;2023-06-19T00:15:20;6.53;;;5.95;;
45420;SDS011;55462;47.042;8.292;2023-06-19T00:17:45;6.50;;;6.05;;
45420;SDS011;55462;47.042;8.292;2023-06-19T00:20:12;7.35;;;6.65;;
45420;SDS011;55462;47.042;8.292;2023-06-19T00:22:38;6.60;;;6.10;;
45420;SDS011;55462;47.042;8.292;2023-06-19T00:25:04;7.18;;;5.85;;
45420;SDS011;55462;47.042;8.292;2023-06-19T00:27:29;6.57;;;6.07;;
45420;SDS011;55462;47.042;8.292;2023-06-19T00:29:55;6.70;;;6.20;;
45420;SDS011;55462;47.042;8.292;2023-06-19T00:32:26;6.60;;;6.10;;
45420;SDS011;55462;47.042;8.292;2023-06-19T00:34:51;6.40;;;6.00;;
45420;SDS011;55462;47.042;8.292;2023-06-19T00:37:17;6.65;;;6.18;;
45420;SDS011;55462;47.042;8.292;2023-06-19T00:39:42;6.30;;;5.80;;
45420;SDS011;55462;47.042;8.292;2023-06-19T00:42:07;6.53;;;6.05;;
45420;SDS011;55462;47.042;8.292;2023-06-19T00:44:33;6.57;;;5.95;;
45420;SDS011;55462;47.042;8.292;2023-06-19T00:46:58;6.65;;;6.15;;
45420;SDS011;55462;47.042;8.292;2023-06-19T00:49:25;6.70;;;6.20;;
45420;SDS011;55462;47.042;8.292;2023-06-19T00:51:51;6.47;;;6.00;;
45420;SDS011;55462;47.042;8.292;2023-06-19T00:54:17;6.75;;;6.15;;
45420;SDS011;55462;47.042;8.292;2023-06-19T00:56:43;6.45;;;5.95;;
45420;SDS011;55462;47.042;8.292;2023-06-19T00:59:16;6.05;;;5.65;;
45420;SDS011;55462;47.042;8.292;2023-06-19T01:01:43;6.50;;;5.97;;
45420;SDS011;55462;47.042;8.292;2023-06-19T01:04:09;6.57;;;6.10;;
45420;SDS011;55462;47.042;8.292;2023-06-19T01:06:41;6.35;;;5.78;;
45420;SDS011;55462;47.042;8.292;2023-06-19T01:09:10;7.05;;;6.03;;
45420;SDS011;55462;47.042;8.292;2023-06-19T01:11:39;6.00;;;5.55;;
45420;SDS011;55462;47.042;8.292;2023-06-19T01:14:17;6.47;;;5.88;;
45420;SDS011;55462;47.042;8.292;2023-06-19T01:16:44;6.88;;;6.38;;
45420;SDS011;55462;47.042;8.292;2023-06-19T01:19:10;6.30;;;5.85;;
45420;SDS011;55462;47.042;8.292;2023-06-19T01:21:45;5.90;;;5.50;;
45420;SDS011;55462;47.042;8.292;2023-06-19T01:24:11;6.47;;;5.88;;
45420;SDS011;55462;47.042;8.292;2023-06-19T01:26:36;6.30;;;5.80;;
45420;SDS011;55462;47.042;8.292;2023-06-19T01:29:02;6.32;;;5.93;;
45420;SDS011;55462;47.042;8.292;2023-06-19T01:31:38;5.78;;;5.38;;
45420;SDS011;55462;47.042;8.292;2023-06-19T01:34:10;6.93;;;6.32;;
45420;SDS011;55462;47.042;8.292;2023-06-19T01:36:37;6.80;;;6.30;;
45420;SDS011;55462;47.042;8.292;2023-06-19T01:39:02;7.13;;;6.50;;
45420;SDS011;55462;47.042;8.292;2023-06-19T01:41:28;7.32;;;6.60;;
45420;SDS011;55462;47.042;8.292;2023-06-19T01:43:56;7.55;;;6.88;;
45420;SDS011;55462;47.042;8.292;2023-06-19T01:46:22;6.80;;;6.30;;
45420;SDS011;55462;47.042;8.292;2023-06-19T01:48:47;6.78;;;6.28;;
45420;SDS011;55462;47.042;8.292;2023-06-19T01:51:12;7.13;;;6.53;;
45420;SDS011;55462;47.042;8.292;2023-06-19T01:53:38;6.40;;;5.88;;
45420;SDS011;55462;47.042;8.292;2023-06-19T01:56:03;6.70;;;6.10;;
45420;SDS011;55462;47.042;8.292;2023-06-19T01:58:29;7.10;;;6.40;;
45420;SDS011;55462;47.042;8.292;2023-06-19T02:00:54;7.85;;;7.25;;
45420;SDS011;55462;47.042;8.292;2023-06-19T02:03:19;9.00;;;7.20;;
45420;SDS011;55462;47.042;8.292;2023-06-19T02:05:45;8.32;;;7.63;;
45420;SDS011;55462;47.042;8.292;2023-06-19T02:08:11;8.40;;;7.80;;
45420;SDS011;55462;47.042;8.292;2023-06-19T02:10:36;7.78;;;7.18;;
45420;SDS011;55462;47.042;8.292;2023-06-19T02:13:02;10.70;;;7.80;;
45420;SDS011;55462;47.042;8.292;2023-06-19T02:15:27;8.55;;;7.93;;
45420;SDS011;55462;47.042;8.292;2023-06-19T02:17:54;8.98;;;8.07;;
45420;SDS011;55462;47.042;8.292;2023-06-19T02:20:21;12.27;;;9.57;;
45420;SDS011;55462;47.042;8.292;2023-06-19T02:22:49;19.58;;;10.98;;
45420;SDS011;55462;47.042;8.292;2023-06-19T02:25:20;20.92;;;9.65;;
45420;SDS011;55462;47.042;8.292;2023-06-19T02:27:48;16.08;;;11.13;;
45420;SDS011;55462;47.042;8.292;2023-06-19T02:30:14;14.48;;;10.32;;
45420;SDS011;55462;47.042;8.292;2023-06-19T02:32:39;19.00;;;11.23;;
45420;SDS011;55462;47.042;8.292;2023-06-19T02:35:06;15.10;;;11.13;;
45420;SDS011;55462;47.042;8.292;2023-06-19T02:37:33;10.68;;;9.70;;
45420;SDS011;55462;47.042;8.292;2023-06-19T02:40:01;11.20;;;10.02;;
45420;SDS011;55462;47.042;8.292;2023-06-19T02:42:28;10.77;;;9.80;;
45420;SDS011;55462;47.042;8.292;2023-06-19T02:44:53;11.55;;;10.70;;
45420;SDS011;55462;47.042;8.292;2023-06-19T02:47:19;11.00;;;10.00;;
45420;SDS011;55462;47.042;8.292;2023-06-19T02:49:44;11.30;;;10.15;;
45420;SDS011;55462;47.042;8.292;2023-06-19T02:52:09;10.52;;;9.73;;
45420;SDS011;55462;47.042;8.292;2023-06-19T02:54:35;10.85;;;9.88;;
45420;SDS011;55462;47.042;8.292;2023-06-19T02:57:00;10.82;;;10.02;;
45420;SDS011;55462;47.042;8.292;2023-06-19T02:59:25;10.60;;;9.70;;
45420;SDS011;55462;47.042;8.292;2023-06-19T03:01:51;10.57;;;9.68;;
45420;SDS011;55462;47.042;8.292;2023-06-19T03:04:16;10.32;;;9.52;;
45420;SDS011;55462;47.042;8.292;2023-06-19T03:06:42;10.63;;;9.75;;
45420;SDS011;55462;47.042;8.292;2023-06-19T03:09:08;10.55;;;9.65;;
45420;SDS011;55462;47.042;8.292;2023-06-19T03:11:40;11.23;;;10.32;;
45420;SDS011;55462;47.042;8.292;2023-06-19T03:14:06;11.60;;;10.65;;
45420;SDS011;55462;47.042;8.292;2023-06-19T03:16:32;11.70;;;10.70;;
45420;SDS011;55462;47.042;8.292;2023-06-19T03:19:00;12.20;;;11.10;;
45420;SDS011;55462;47.042;8.292;2023-06-19T03:21:26;11.05;;;9.93;;
45420;SDS011;55462;47.042;8.292;2023-06-19T03:23:52;10.00;;;9.07;;
45420;SDS011;55462;47.042;8.292;2023-06-19T03:26:20;10.90;;;9.80;;
45420;SDS011;55462;47.042;8.292;2023-06-19T03:28:46;10.02;;;9.30;;
45420;SDS011;55462;47.042;8.292;2023-06-19T03:31:12;10.07;;;9.23;;
45420;SDS011;55462;47.042;8.292;2023-06-19T03:33:38;9.65;;;8.93;;
45420;SDS011;55462;47.042;8.292;2023-06-19T03:36:03;11.13;;;10.18;;
45420;SDS011;55462;47.042;8.292;2023-06-19T03:38:29;11.23;;;10.32;;
45420;SDS011;55462;47.042;8.292;2023-06-19T03:40:54;9.73;;;8.98;;
45420;SDS011;55462;47.042;8.292;2023-06-19T03:43:20;9.65;;;8.85;;
45420;SDS011;55462;47.042;8.292;2023-06-19T03:45:45;15.60;;;8.55;;
45420;SDS011;55462;47.042;8.292;2023-06-19T03:48:10;9.18;;;8.27;;
45420;SDS011;55462;47.042;8.292;2023-06-19T03:50:36;8.93;;;8.05;;
45420;SDS011;55462;47.042;8.292;2023-06-19T03:53:02;9.18;;;8.15;;
45420;SDS011;55462;47.042;8.292;2023-06-19T03:55:27;8.35;;;7.55;;
45420;SDS011;55462;47.042;8.292;2023-06-19T03:57:53;9.50;;;8.48;;
45420;SDS011;55462;47.042;8.292;2023-06-19T04:00:18;9.82;;;9.02;;
45420;SDS011;55462;47.042;8.292;2023-06-19T04:02:44;9.25;;;8.55;;
45420;SDS011;55462;47.042;8.292;2023-06-19T04:05:13;9.25;;;8.40;;
45420;SDS011;55462;47.042;8.292;2023-06-19T04:07:39;9.52;;;8.82;;
45420;SDS011;55462;47.042;8.292;2023-06-19T04:10:04;10.00;;;9.10;;
45420;SDS011;55462;47.042;8.292;2023-06-19T04:12:30;9.18;;;8.38;;
45420;SDS011;55462;47.042;8.292;2023-06-19T04:14:55;9.75;;;8.63;;
45420;SDS011;55462;47.042;8.292;2023-06-19T04:17:20;9.48;;;8.77;;
45420;SDS011;55462;47.042;8.292;2023-06-19T04:19:46;9.35;;;8.55;;
45420;SDS011;55462;47.042;8.292;2023-06-19T04:22:11;8.95;;;8.15;;
45420;SDS011;55462;47.042;8.292;2023-06-19T04:24:36;10.70;;;7.85;;
45420;SDS011;55462;47.042;8.292;2023-06-19T04:27:02;12.45;;;7.78;;
45420;SDS011;55462;47.042;8.292;2023-06-19T04:29:27;7.68;;;6.97;;
45420;SDS011;55462;47.042;8.292;2023-06-19T04:31:57;7.50;;;6.85;;
45420;SDS011;55462;47.042;8.292;2023-06-19T04:34:25;8.00;;;7.20;;
45420;SDS011;55462;47.042;8.292;2023-06-19T04:36:51;8.50;;;7.60;;
45420;SDS011;55462;47.042;8.292;2023-06-19T04:39:16;7.60;;;5.82;;
45420;SDS011;55462;47.042;8.292;2023-06-19T04:41:45;8.77;;;6.95;;
45420;SDS011;55462;47.042;8.292;2023-06-19T04:44:10;7.10;;;6.40;;
45420;SDS011;55462;47.042;8.292;2023-06-19T04:46:38;7.78;;;7.13;;
45420;SDS011;55462;47.042;8.292;2023-06-19T04:49:05;7.30;;;6.70;;
45420;SDS011;55462;47.042;8.292;2023-06-19T04:51:31;6.30;;;5.72;;
45420;SDS011;55462;47.042;8.292;2023-06-19T04:53:57;6.40;;;5.80;;
45420;SDS011;55462;47.042;8.292;2023-06-19T04:56:26;6.18;;;5.78;;
45420;SDS011;55462;47.042;8.292;2023-06-19T04:58:51;6.93;;;6.43;;
45420;SDS011;55462;47.042;8.292;2023-06-19T05:01:16;7.50;;;6.90;;
45420;SDS011;55462;47.042;8.292;2023-06-19T05:03:47;7.35;;;6.75;;
45420;SDS011;55462;47.042;8.292;2023-06-19T05:06:12;8.15;;;7.28;;
45420;SDS011;55462;47.042;8.292;2023-06-19T05:08:38;8.70;;;8.02;;
45420;SDS011;55462;47.042;8.292;2023-06-19T05:11:03;10.00;;;9.10;;
45420;SDS011;55462;47.042;8.292;2023-06-19T05:13:28;9.93;;;9.02;;
45420;SDS011;55462;47.042;8.292;2023-06-19T05:15:54;11.40;;;9.45;;
45420;SDS011;55462;47.042;8.292;2023-06-19T05:18:21;9.90;;;8.90;;
45420;SDS011;55462;47.042;8.292;2023-06-19T05:20:46;9.68;;;8.80;;
45420;SDS011;55462;47.042;8.292;2023-06-19T05:23:11;9.85;;;8.98;;
45420;SDS011;55462;47.042;8.292;2023-06-19T05:25:37;9.65;;;8.90;;
45420;SDS011;55462;47.042;8.292;2023-06-19T05:28:02;9.90;;;9.00;;
45420;SDS011;55462;47.042;8.292;2023-06-19T05:30:28;10.25;;;9.20;;
45420;SDS011;55462;47.042;8.292;2023-06-19T05:32:54;9.65;;;8.85;;
45420;SDS011;55462;47.042;8.292;2023-06-19T05:35:19;11.20;;;9.25;;
45420;SDS011;55462;47.042;8.292;2023-06-19T05:37:44;8.27;;;7.68;;
45420;SDS011;55462;47.042;8.292;2023-06-19T05:40:10;8.77;;;8.15;;
45420;SDS011;55462;47.042;8.292;2023-06-19T05:42:36;8.38;;;7.55;;
45420;SDS011;55462;47.042;8.292;2023-06-19T05:45:02;8.90;;;7.53;;
45420;SDS011;55462;47.042;8.292;2023-06-19T05:47:28;8.20;;;7.60;;
45420;SDS011;55462;47.042;8.292;2023-06-19T05:49:55;7.72;;;7.13;;
45420;SDS011;55462;47.042;8.292;2023-06-19T05:52:21;6.78;;;6.30;;
45420;SDS011;55462;47.042;8.292;2023-06-19T05:54:54;7.28;;;6.53;;
45420;SDS011;55462;47.042;8.292;2023-06-19T05:57:20;7.78;;;7.03;;
45420;SDS011;55462;47.042;8.292;2023-06-19T05:59:48;6.60;;;6.15;;
45420;SDS011;55462;47.042;8.292;2023-06-19T06:02:13;6.30;;;5.90;;
45420;SDS011;55462;47.042;8.292;2023-06-19T06:04:39;7.90;;;7.20;;
45420;SDS011;55462;47.042;8.292;2023-06-19T06:07:04;7.75;;;6.90;;
45420;SDS011;55462;47.042;8.292;2023-06-19T06:09:30;7.43;;;6.88;;
45420;SDS011;55462;47.042;8.292;2023-06-19T06:11:55;7.25;;;6.53;;
45420;SDS011;55462;47.042;8.292;2023-06-19T06:14:21;7.90;;;6.20;;
45420;SDS011;55462;47.042;8.292;2023-06-19T06:16:46;11.13;;;7.07;;
45420;SDS011;55462;47.042;8.292;2023-06-19T06:19:11;7.20;;;6.03;;
45420;SDS011;55462;47.042;8.292;2023-06-19T06:21:37;6.90;;;6.40;;
45420;SDS011;55462;47.042;8.292;2023-06-19T06:24:02;6.13;;;5.60;;
45420;SDS011;55462;47.042;8.292;2023-06-19T06:26:28;10.15;;;6.47;;
45420;SDS011;55462;47.042;8.292;2023-06-19T06:28:53;6.70;;;6.20;;
45420;SDS011;55462;47.042;8.292;2023-06-19T06:31:19;7.18;;;6.50;;
45420;SDS011;55462;47.042;8.292;2023-06-19T06:33:45;6.85;;;6.25;;
45420;SDS011;55462;47.042;8.292;2023-06-19T06:36:10;7.10;;;6.53;;
45420;SDS011;55462;47.042;8.292;2023-06-19T06:38:35;7.75;;;7.13;;
45420;SDS011;55462;47.042;8.292;2023-06-19T06:41:01;7.18;;;6.47;;
45420;SDS011;55462;47.042;8.292;2023-06-19T06:43:26;7.60;;;6.90;;
45420;SDS011;55462;47.042;8.292;2023-06-19T06:45:52;7.55;;;7.05;;
45420;SDS011;55462;47.042;8.292;2023-06-19T06:48:18;6.95;;;6.50;;
45420;SDS011;55462;47.042;8.292;2023-06-19T06:50:43;8.07;;;7.43;;
45420;SDS011;55462;47.042;8.292;2023-06-19T06:53:09;8.73;;;7.80;;
45420;SDS011;55462;47.042;8.292;2023-06-19T06:55:34;7.80;;;7.22;;
45420;SDS011;55462;47.042;8.292;2023-06-19T06:57:59;7.85;;;7.25;;
45420;SDS011;55462;47.042;8.292;2023-06-19T07:00:25;7.82;;;7.13;;
45420;SDS011;55462;47.042;8.292;2023-06-19T07:02:50;8.52;;;7.82;;
45420;SDS011;55462;47.042;8.292;2023-06-19T07:05:16;9.75;;;7.88;;
45420;SDS011;55462;47.042;8.292;2023-06-19T07:07:41;8.40;;;7.70;;
45420;SDS011;55462;47.042;8.292;2023-06-19T07:10:07;8.65;;;7.65;;
45420;SDS011;55462;47.042;8.292;2023-06-19T07:12:33;8.63;;;7.72;;
45420;SDS011;55462;47.042;8.292;2023-06-19T07:14:59;9.45;;;8.73;;
45420;SDS011;55462;47.042;8.292;2023-06-19T07:17:24;10.10;;;8.52;;
45420;SDS011;55462;47.042;8.292;2023-06-19T07:19:49;8.60;;;7.90;;
45420;SDS011;55462;47.042;8.292;2023-06-19T07:22:15;8.98;;;8.38;;
45420;SDS011;55462;47.042;8.292;2023-06-19T07:24:40;9.23;;;8.43;;
45420;SDS011;55462;47.042;8.292;2023-06-19T07:27:25;9.02;;;8.25;;
45420;SDS011;55462;47.042;8.292;2023-06-19T07:29:52;8.98;;;7.57;;
45420;SDS011;55462;47.042;8.292;2023-06-19T07:32:18;9.07;;;8.18;;
45420;SDS011;55462;47.042;8.292;2023-06-19T07:34:45;8.02;;;7.35;;
45420;SDS011;55462;47.042;8.292;2023-06-19T07:37:11;8.50;;;7.75;;
45420;SDS011;55462;47.042;8.292;2023-06-19T07:39:42;8.18;;;7.65;;
45420;SDS011;55462;47.042;8.292;2023-06-19T07:42:10;9.43;;;8.27;;
45420;SDS011;55462;47.042;8.292;2023-06-19T07:44:36;9.13;;;8.23;;
45420;SDS011;55462;47.042;8.292;2023-06-19T07:47:01;9.90;;;7.85;;
45420;SDS011;55462;47.042;8.292;2023-06-19T07:49:26;8.48;;;7.68;;
45420;SDS011;55462;47.042;8.292;2023-06-19T07:51:52;8.70;;;8.07;;
45420;SDS011;55462;47.042;8.292;2023-06-19T07:54:17;8.88;;;7.97;;
45420;SDS011;55462;47.042;8.292;2023-06-19T07:56:43;7.90;;;7.20;;
45420;SDS011;55462;47.042;8.292;2023-06-19T07:59:08;7.93;;;7.22;;
45420;SDS011;55462;47.042;8.292;2023-06-19T08:01:33;7.82;;;7.10;;
45420;SDS011;55462;47.042;8.292;2023-06-19T08:03:58;7.75;;;6.90;;
45420;SDS011;55462;47.042;8.292;2023-06-19T08:06:24;7.75;;;7.05;;
45420;SDS011;55462;47.042;8.292;2023-06-19T08:08:49;7.63;;;6.88;;
45420;SDS011;55462;47.042;8.292;2023-06-19T08:11:16;7.25;;;6.75;;
45420;SDS011;55462;47.042;8.292;2023-06-19T08:13:41;7.03;;;6.53;;
45420;SDS011;55462;47.042;8.292;2023-06-19T08:16:07;8.05;;;7.43;;
45420;SDS011;55462;47.042;8.292;2023-06-19T08:18:32;7.70;;;6.93;;
45420;SDS011;55462;47.042;8.292;2023-06-19T08:20:58;8.10;;;7.40;;
45420;SDS011;55462;47.042;8.292;2023-06-19T08:23:23;8.50;;;7.18;;
45420;SDS011;55462;47.042;8.292;2023-06-19T08:25:49;8.48;;;7.05;;
45420;SDS011;55462;47.042;8.292;2023-06-19T08:28:16;8.52;;;7.70;;
45420;SDS011;55462;47.042;8.292;2023-06-19T08:30:41;8.88;;;7.90;;
45420;SDS011;55462;47.042;8.292;2023-06-19T08:33:07;8.80;;;8.00;;
45420;SDS011;55462;47.042;8.292;2023-06-19T08:35:33;9.07;;;8.27;;
45420;SDS011;55462;47.042;8.292;2023-06-19T08:37:58;8.20;;;7.60;;
45420;SDS011;55462;47.042;8.292;2023-06-19T08:40:24;8.23;;;7.32;;
45420;SDS011;55462;47.042;8.292;2023-06-19T08:42:49;8.07;;;7.22;;
45420;SDS011;55462;47.042;8.292;2023-06-19T08:45:17;9.30;;;8.00;;
45420;SDS011;55462;47.042;8.292;2023-06-19T08:47:46;10.25;;;7.43;;
45420;SDS011;55462;47.042;8.292;2023-06-19T08:50:12;8.57;;;7.75;;
45420;SDS011;55462;47.042;8.292;2023-06-19T08:52:37;7.95;;;7.15;;
45420;SDS011;55462;47.042;8.292;2023-06-19T08:55:03;11.02;;;7.93;;
45420;SDS011;55462;47.042;8.292;2023-06-19T08:57:35;8.40;;;7.68;;
45420;SDS011;55462;47.042;8.292;2023-06-19T09:00:02;7.60;;;7.00;;
45420;SDS011;55462;47.042;8.292;2023-06-19T09:02:40;8.23;;;7.55;;
45420;SDS011;55462;47.042;8.292;2023-06-19T09:05:13;9.70;;;7.40;;
45420;SDS011;55462;47.042;8.292;2023-06-19T09:07:43;8.50;;;7.80;;
45420;SDS011;55462;47.042;8.292;2023-06-19T09:10:15;8.18;;;7.47;;
45420;SDS011;55462;47.042;8.292;2023-06-19T09:12:43;8.57;;;7.72;;
45420;SDS011;55462;47.042;8.292;2023-06-19T09:15:21;10.15;;;8.20;;
45420;SDS011;55462;47.042;8.292;2023-06-19T09:17:48;10.68;;;7.95;;
45420;SDS011;55462;47.042;8.292;2023-06-19T09:20:28;9.30;;;8.52;;
45420;SDS011;55462;47.042;8.292;2023-06-19T09:22:54;8.60;;;7.40;;
45420;SDS011;55462;47.042;8.292;2023-06-19T09:25:22;7.88;;;7.28;;
45420;SDS011;55462;47.042;8.292;2023-06-19T09:27:55;8.80;;;8.05;;
45420;SDS011;55462;47.042;8.292;2023-06-19T09:30:21;8.60;;;6.97;;
45420;SDS011;55462;47.042;8.292;2023-06-19T09:32:46;8.85;;;8.07;;
45420;SDS011;55462;47.042;8.292;2023-06-19T09:35:12;8.30;;;7.60;;
45420;SDS011;55462;47.042;8.292;2023-06-19T09:37:38;8.65;;;7.75;;
45420;SDS011;55462;47.042;8.292;2023-06-19T09:40:05;7.82;;;7.13;;
45420;SDS011;55462;47.042;8.292;2023-06-19T09:42:38;7.75;;;7.07;;
45420;SDS011;55462;47.042;8.292;2023-06-19T09:45:05;7.60;;;6.85;;
45420;SDS011;55462;47.042;8.292;2023-06-19T09:47:33;8.02;;;7.25;;
45420;SDS011;55462;47.042;8.292;2023-06-19T09:50:01;7.68;;;6.78;;
45420;SDS011;55462;47.042;8.292;2023-06-19T09:52:28;8.73;;;7.32;;
45420;SDS011;55462;47.042;8.292;2023-06-19T09:54:54;8.50;;;7.72;;
45420;SDS011;55462;47.042;8.292;2023-06-19T09:57:20;8.02;;;7.28;;
45420;SDS011;55462;47.042;8.292;2023-06-19T09:59:55;8.25;;;7.40;;
45420;SDS011;55462;47.042;8.292;2023-06-19T10:02:22;9.05;;;8.23;;
45420;SDS011;55462;47.042;8.292;2023-06-19T10:04:52;9.23;;;7.68;;
45420;SDS011;55462;47.042;8.292;2023-06-19T10:07:20;9.25;;;8.52;;
45420;SDS011;55462;47.042;8.292;2023-06-19T10:09:57;8.75;;;7.97;;
45420;SDS011;55462;47.042;8.292;2023-06-19T10:12:35;9.23;;;8.52;;
45420;SDS011;55462;47.042;8.292;2023-06-19T10:18:13;11.30;;;8.07;;
45420;SDS011;55462;47.042;8.292;2023-06-19T10:20:42;8.35;;;7.55;;
45420;SDS011;55462;47.042;8.292;2023-06-19T10:23:11;8.02;;;7.45;;
45420;SDS011;55462;47.042;8.292;2023-06-19T10:25:46;8.20;;;7.50;;
45420;SDS011;55462;47.042;8.292;2023-06-19T10:28:21;8.18;;;7.50;;
45420;SDS011;55462;47.042;8.292;2023-06-19T10:30:57;7.53;;;7.03;;
45420;SDS011;55462;47.042;8.292;2023-06-19T10:33:27;7.80;;;7.13;;
45420;SDS011;55462;47.042;8.292;2023-06-19T10:35:54;8.43;;;7.50;;
45420;SDS011;55462;47.042;8.292;2023-06-19T10:38:19;8.63;;;7.82;;
45420;SDS011;55462;47.042;8.292;2023-06-19T10:40:45;8.10;;;7.43;;
45420;SDS011;55462;47.042;8.292;2023-06-19T10:43:11;8.02;;;7.43;;
45420;SDS011;55462;47.042;8.292;2023-06-19T10:45:48;8.13;;;7.47;;
45420;SDS011;55462;47.042;8.292;2023-06-19T10:48:18;7.35;;;6.80;;
45420;SDS011;55462;47.042;8.292;2023-06-19T10:50:44;8.05;;;7.45;;
45420;SDS011;55462;47.042;8.292;2023-06-19T10:53:10;8.60;;;7.63;;
45420;SDS011;55462;47.042;8.292;2023-06-19T10:55:35;8.10;;;7.50;;
45420;SDS011;55462;47.042;8.292;2023-06-19T10:58:00;7.75;;;7.05;;
45420;SDS011;55462;47.042;8.292;2023-06-19T11:00:27;7.68;;;7.07;;
45420;SDS011;55462;47.042;8.292;2023-06-19T11:02:54;7.43;;;6.93;;
45420;SDS011;55462;47.042;8.292;2023-06-19T11:05:23;8.05;;;7.43;;
45420;SDS011;55462;47.042;8.292;2023-06-19T11:07:56;8.20;;;7.70;;
45420;SDS011;55462;47.042;8.292;2023-06-19T11:10:23;8.20;;;7.38;;
45420;SDS011;55462;47.042;8.292;2023-06-19T11:12:50;8.73;;;7.93;;
45420;SDS011;55462;47.042;8.292;2023-06-19T11:15:18;7.93;;;7.22;;
45420;SDS011;55462;47.042;8.292;2023-06-19T11:17:43;7.82;;;7.30;;
45420;SDS011;55462;47.042;8.292;2023-06-19T11:20:10;8.13;;;7.57;;
45420;SDS011;55462;47.042;8.292;2023-06-19T11:22:40;7.30;;;6.78;;
45420;SDS011;55462;47.042;8.292;2023-06-19T11:25:06;7.82;;;7.22;;
45420;SDS011;55462;47.042;8.292;2023-06-19T11:27:33;9.82;;;8.98;;
45420;SDS011;55462;47.042;8.292;2023-06-19T11:30:00;8.82;;;8.13;;
45420;SDS011;55462;47.042;8.292;2023-06-19T11:32:32;15.65;;;8.02;;
45420;SDS011;55462;47.042;8.292;2023-06-19T11:35:04;8.68;;;7.90;;
45420;SDS011;55462;47.042;8.292;2023-06-19T11:37:39;9.73;;;8.93;;
45420;SDS011;55462;47.042;8.292;2023-06-19T11:40:06;8.25;;;7.75;;
45420;SDS011;55462;47.042;8.292;2023-06-19T11:42:49;7.53;;;6.93;;
45420;SDS011;55462;47.042;8.292;2023-06-19T11:45:17;8.25;;;7.65;;
45420;SDS011;55462;47.042;8.292;2023-06-19T11:47:43;8.80;;;8.05;;
45420;SDS011;55462;47.042;8.292;2023-06-19T11:50:10;7.63;;;6.93;;
45420;SDS011;55462;47.042;8.292;2023-06-19T11:52:36;8.02;;;7.43;;
45420;SDS011;55462;47.042;8.292;2023-06-19T11:55:01;8.27;;;7.78;;
45420;SDS011;55462;47.042;8.292;2023-06-19T11:57:27;8.57;;;7.88;;
45420;SDS011;55462;47.042;8.292;2023-06-19T11:59:52;7.93;;;7.32;;
45420;SDS011;55462;47.042;8.292;2023-06-19T12:02:18;7.88;;;7.38;;
45420;SDS011;55462;47.042;8.292;2023-06-19T12:04:43;8.07;;;7.45;;
45420;SDS011;55462;47.042;8.292;2023-06-19T12:07:08;8.07;;;7.45;;
45420;SDS011;55462;47.042;8.292;2023-06-19T12:09:34;8.10;;;7.40;;
45420;SDS011;55462;47.042;8.292;2023-06-19T12:11:59;7.53;;;7.03;;
45420;SDS011;55462;47.042;8.292;2023-06-19T12:14:25;8.27;;;7.65;;
45420;SDS011;55462;47.042;8.292;2023-06-19T12:16:51;8.35;;;7.80;;
45420;SDS011;55462;47.042;8.292;2023-06-19T12:19:16;8.68;;;7.97;;
45420;SDS011;55462;47.042;8.292;2023-06-19T12:21:42;8.57;;;8.02;;
45420;SDS011;55462;47.042;8.292;2023-06-19T12:24:07;8.85;;;8.15;;
45420;SDS011;55462;47.042;8.292;2023-06-19T12:26:34;9.27;;;8.57;;
45420;SDS011;55462;47.042;8.292;2023-06-19T12:29:03;8.45;;;7.70;;
45420;SDS011;55462;47.042;8.292;2023-06-19T12:31:29;8.32;;;7.68;;
45420;SDS011;55462;47.042;8.292;2023-06-19T12:33:54;8.55;;;8.05;;
45420;SDS011;55462;47.042;8.292;2023-06-19T12:36:19;8.73;;;8.02;;
45420;SDS011;55462;47.042;8.292;2023-06-19T12:38:45;8.57;;;7.97;;
45420;SDS011;55462;47.042;8.292;2023-06-19T12:41:12;9.75;;;8.93;;
45420;SDS011;55462;47.042;8.292;2023-06-19T12:43:37;8.88;;;8.18;;
45420;SDS011;55462;47.042;8.292;2023-06-19T12:46:03;8.25;;;7.57;;
45420;SDS011;55462;47.042;8.292;2023-06-19T12:48:28;8.63;;;7.72;;
45420;SDS011;55462;47.042;8.292;2023-06-19T12:50:55;9.43;;;8.40;;
45420;SDS011;55462;47.042;8.292;2023-06-19T12:53:20;7.47;;;6.97;;
45420;SDS011;55462;47.042;8.292;2023-06-19T12:55:51;7.57;;;6.97;;
45420;SDS011;55462;47.042;8.292;2023-06-19T12:58:16;7.80;;;7.10;;
45420;SDS011;55462;47.042;8.292;2023-06-19T13:00:44;7.57;;;7.07;;
45420;SDS011;55462;47.042;8.292;2023-06-19T13:03:10;7.55;;;7.05;;
45420;SDS011;55462;47.042;8.292;2023-06-19T13:05:35;6.75;;;6.15;;
45420;SDS011;55462;47.042;8.292;2023-06-19T13:08:01;6.45;;;5.93;;
45420;SDS011;55462;47.042;8.292;2023-06-19T13:10:26;7.03;;;6.35;;
45420;SDS011;55462;47.042;8.292;2023-06-19T13:12:52;6.25;;;5.75;;
45420;SDS011;55462;47.042;8.292;2023-06-19T13:15:17;6.60;;;6.10;;
45420;SDS011;55462;47.042;8.292;2023-06-19T13:17:42;6.78;;;6.28;;
45420;SDS011;55462;47.042;8.292;2023-06-19T13:20:08;6.78;;;6.28;;
45420;SDS011;55462;47.042;8.292;2023-06-19T13:22:33;7.30;;;6.80;;
45420;SDS011;55462;47.042;8.292;2023-06-19T13:24:58;7.40;;;6.60;;
45420;SDS011;55462;47.042;8.292;2023-06-19T13:27:24;7.20;;;6.70;;
45420;SDS011;55462;47.042;8.292;2023-06-19T13:29:49;8.70;;;7.57;;
45420;SDS011;55462;47.042;8.292;2023-06-19T13:32:15;8.32;;;7.65;;
45420;SDS011;55462;47.042;8.292;2023-06-19T13:34:40;9.05;;;8.35;;
45420;SDS011;55462;47.042;8.292;2023-06-19T13:37:06;9.98;;;9.18;;
45420;SDS011;55462;47.042;8.292;2023-06-19T13:39:31;9.85;;;9.02;;
45420;SDS011;55462;47.042;8.292;2023-06-19T13:41:56;10.52;;;9.68;;
45420;SDS011;55462;47.042;8.292;2023-06-19T13:44:22;10.02;;;9.32;;
45420;SDS011;55462;47.042;8.292;2023-06-19T13:46:47;9.60;;;8.85;;
45420;SDS011;55462;47.042;8.292;2023-06-19T13:49:13;10.82;;;9.75;;
45420;SDS011;55462;47.042;8.292;2023-06-19T13:51:38;9.95;;;9.25;;
45420;SDS011;55462;47.042;8.292;2023-06-19T13:54:04;9.73;;;9.00;;
45420;SDS011;55462;47.042;8.292;2023-06-19T13:56:30;9.88;;;9.07;;
45420;SDS011;55462;47.042;8.292;2023-06-19T13:58:57;9.88;;;9.07;;
45420;SDS011;55462;47.042;8.292;2023-06-19T14:01:25;9.73;;;8.77;;
45420;SDS011;55462;47.042;8.292;2023-06-19T14:03:50;10.45;;;9.63;;
45420;SDS011;55462;47.042;8.292;2023-06-19T14:06:16;9.07;;;8.27;;
45420;SDS011;55462;47.042;8.292;2023-06-19T14:08:41;8.95;;;8.02;;
45420;SDS011;55462;47.042;8.292;2023-06-19T14:11:07;8.98;;;8.07;;
45420;SDS011;55462;47.042;8.292;2023-06-19T14:13:32;8.82;;;8.13;;
45420;SDS011;55462;47.042;8.292;2023-06-19T14:15:57;9.48;;;8.77;;
45420;SDS011;55462;47.042;8.292;2023-06-19T14:18:23;9.48;;;8.27;;
45420;SDS011;55462;47.042;8.292;2023-06-19T14:20:48;10.63;;;8.65;;
45420;SDS011;55462;47.042;8.292;2023-06-19T14:23:13;10.00;;;9.20;;
45420;SDS011;55462;47.042;8.292;2023-06-19T14:25:39;9.40;;;8.60;;
45420;SDS011;55462;47.042;8.292;2023-06-19T14:28:04;9.52;;;8.63;;
45420;SDS011;55462;47.042;8.292;2023-06-19T14:30:30;9.32;;;8.50;;
45420;SDS011;55462;47.042;8.292;2023-06-19T14:32:55;9.65;;;8.75;;
45420;SDS011;55462;47.042;8.292;2023-06-19T14:35:20;11.82;;;9.10;;
45420;SDS011;55462;47.042;8.292;2023-06-19T14:37:46;10.50;;;8.85;;
45420;SDS011;55462;47.042;8.292;2023-06-19T14:40:11;7.95;;;7.32;;
45420;SDS011;55462;47.042;8.292;2023-06-19T14:42:36;8.57;;;7.78;;
45420;SDS011;55462;47.042;8.292;2023-06-19T14:45:02;7.90;;;7.30;;